Time;durP1;ratioP1;P1;durP2;ratioP2;P2;SDS_P1;SDS_P2;PMS_P1;PMS_P2;Temp;Humidity;BMP_temperature;BMP_pressure;BME280_temperature;BME280_humidity;BME280_pressure;Samples;Min_cycle;Max_cycle;Signal;HPM_P1;HPM_P2
2021/06/08 00:02:20;;;;;;;42.58;27.70;;;11.00;99.90;;;;;;5012644;28;20087;-79
2021/06/08 00:04:46;;;;;;;44.20;29.25;;;11.00;99.90;;;;;;5013016;28;20085;-79
2021/06/08 00:07:12;;;;;;;39.40;25.45;;;11.00;99.90;;;;;;5013046;28;20022;-79
2021/06/08 00:09:37;;;;;;;39.67;25.00;;;10.90;99.90;;;;;;5013102;28;20022;-78
2021/06/08 00:12:03;;;;;;;47.78;28.63;;;10.80;99.90;;;;;;5011803;28;20033;-79
2021/06/08 00:14:29;;;;;;;39.78;25.65;;;10.80;99.90;;;;;;5012666;28;20157;-79
2021/06/08 00:16:54;;;;;;;48.00;28.45;;;10.70;99.90;;;;;;5011368;28;20545;-78
2021/06/08 00:19:20;;;;;;;45.50;27.60;;;10.70;99.90;;;;;;5012975;28;20555;-79
2021/06/08 00:21:45;;;;;;;46.42;26.42;;;10.70;99.90;;;;;;5012852;28;20030;-80
2021/06/08 00:24:11;;;;;;;46.78;27.35;;;10.60;99.90;;;;;;5012482;28;20053;-79
2021/06/08 00:26:36;;;;;;;39.83;25.63;;;10.50;99.90;;;;;;5012799;28;20029;-80
2021/06/08 00:29:02;;;;;;;36.60;24.20;;;10.50;99.90;;;;;;5012759;28;20476;-79
2021/06/08 00:31:28;;;;;;;43.72;25.73;;;10.40;99.90;;;;;;5011380;28;20033;-79
2021/06/08 00:33:54;;;;;;;43.63;27.40;;;10.50;99.90;;;;;;5011005;28;20026;-78
2021/06/08 00:36:20;;;;;;;42.80;26.90;;;10.40;99.90;;;;;;5012630;28;20037;-78
2021/06/08 00:38:45;;;;;;;43.00;27.67;;;10.40;99.90;;;;;;5012616;28;20105;-79
2021/06/08 00:41:12;;;;;;;40.13;26.70;;;10.30;99.90;;;;;;5011254;28;20672;-79
2021/06/08 00:43:38;;;;;;;39.53;25.17;;;10.30;99.90;;;;;;5012264;28;20036;-78
2021/06/08 00:46:04;;;;;;;34.38;23.73;;;10.30;99.90;;;;;;5012429;28;20033;-78
2021/06/08 00:48:29;;;;;;;39.80;24.92;;;10.20;99.90;;;;;;5010869;28;20029;-78
2021/06/08 00:50:55;;;;;;;44.45;24.30;;;10.10;99.90;;;;;;5011152;28;20030;-79
2021/06/08 00:53:21;;;;;;;39.97;25.77;;;10.10;99.90;;;;;;5012156;28;20034;-79
2021/06/08 00:55:46;;;;;;;44.97;26.58;;;10.10;99.90;;;;;;5012274;28;20071;-79
2021/06/08 00:58:12;;;;;;;45.42;26.30;;;10.10;99.90;;;;;;5012425;28;20045;-78
2021/06/08 01:00:37;;;;;;;43.15;28.40;;;10.10;99.90;;;;;;5010980;28;20037;-78
2021/06/08 01:03:04;;;;;;;44.78;26.65;;;10.10;99.90;;;;;;5012012;28;20394;-78
2021/06/08 01:05:30;;;;;;;54.60;28.10;;;10.10;99.90;;;;;;5010809;28;20494;-79
2021/06/08 01:07:55;;;;;;;45.83;26.83;;;10.00;99.90;;;;;;5012051;28;20486;-78
2021/06/08 01:10:21;;;;;;;38.55;26.15;;;10.00;99.90;;;;;;5012169;28;20052;-78
2021/06/08 01:12:47;;;;;;;44.22;22.92;;;9.90;99.90;;;;;;5011935;28;20622;-79
2021/06/08 01:15:13;;;;;;;39.55;24.75;;;9.90;99.90;;;;;;5011812;28;20067;-78
2021/06/08 01:17:39;;;;;;;41.92;23.95;;;9.80;99.90;;;;;;5010175;28;20080;-78
2021/06/08 01:20:07;;;;;;;39.83;26.13;;;9.80;99.90;;;;;;5012085;28;20037;-79
2021/06/08 01:22:33;;;;;;;40.92;27.73;;;9.80;99.90;;;;;;5010394;28;20084;-79
2021/06/08 01:24:59;;;;;;;45.95;26.92;;;9.70;99.90;;;;;;5011856;28;20486;-78
2021/06/08 01:27:25;;;;;;;44.45;26.50;;;9.70;99.90;;;;;;5011964;28;20076;-78
2021/06/08 01:29:53;;;;;;;43.78;25.50;;;9.70;99.90;;;;;;5011882;28;20029;-78
2021/06/08 01:32:24;;;;;;;39.45;26.63;;;9.60;99.90;;;;;;5011761;28;20033;-78
2021/06/08 01:34:51;;;;;;;44.53;26.58;;;9.70;99.90;;;;;;5011747;28;20037;-79
2021/06/08 01:37:17;;;;;;;45.35;28.65;;;9.70;99.90;;;;;;5010402;28;20037;-78
2021/06/08 01:39:46;;;;;;;40.05;26.23;;;9.70;99.90;;;;;;5014647;28;20037;-79
2021/06/08 01:42:12;;;;;;;49.75;29.10;;;9.60;99.90;;;;;;5014209;28;20096;-78
2021/06/08 01:44:43;;;;;;;47.13;26.40;;;9.60;99.90;;;;;;5015610;28;20021;-79
2021/06/08 01:47:10;;;;;;;45.55;27.80;;;9.60;99.90;;;;;;5015443;28;20120;-78
2021/06/08 01:49:36;;;;;;;50.15;27.30;;;9.60;99.90;;;;;;5014508;28;20025;-78
2021/06/08 01:52:15;;;;;;;49.45;27.10;;;9.50;99.90;;;;;;5015654;28;20103;-79
2021/06/08 01:54:57;;;;;;;36.70;25.25;;;9.50;99.90;;;;;;5015138;28;20073;-79
2021/06/08 01:57:30;;;;;;;45.13;25.85;;;9.40;99.90;;;;;;5015548;28;20041;-78
2021/06/08 02:00:11;;;;;;;43.00;25.63;;;9.40;99.90;;;;;;5015631;28;20030;-78
2021/06/08 02:03:15;;;;;;;44.00;26.23;;;9.30;99.90;;;;;;5015155;28;20030;-78
2021/06/08 02:05:50;;;;;;;41.60;22.93;;;9.20;99.90;;;;;;5014044;28;20395;-78
2021/06/08 02:08:43;;;;;;;37.15;23.55;;;9.10;99.90;;;;;;5013192;28;20162;-79
2021/06/08 02:11:22;;;;;;;41.90;23.48;;;9.00;99.90;;;;;;5015036;28;20026;-79
2021/06/08 02:13:53;;;;;;;41.78;23.15;;;9.00;99.90;;;;;;5014905;28;20149;-79
2021/06/08 02:16:28;;;;;;;38.70;24.50;;;8.90;99.90;;;;;;5015406;28;20033;-79
2021/06/08 02:18:54;;;;;;;37.83;25.52;;;8.90;99.90;;;;;;5013608;28;20038;-79
2021/06/08 02:21:29;;;;;;;44.97;26.42;;;8.80;99.90;;;;;;5030246;28;20116;-79
2021/06/08 02:23:56;;;;;;;41.55;24.20;;;8.80;99.90;;;;;;5014626;28;20026;-78
2021/06/08 02:26:24;;;;;;;37.75;25.00;;;8.80;99.90;;;;;;5015065;28;20018;-79
2021/06/08 02:28:52;;;;;;;47.08;28.17;;;8.80;99.90;;;;;;5014884;28;20065;-78
2021/06/08 02:31:18;;;;;;;45.40;27.55;;;8.80;99.90;;;;;;5014975;28;20034;-78
2021/06/08 02:33:46;;;;;;;48.42;25.92;;;8.90;99.90;;;;;;5013181;28;20033;-79
2021/06/08 02:36:13;;;;;;;38.92;24.27;;;8.80;99.90;;;;;;5013443;28;20536;-78
2021/06/08 02:38:39;;;;;;;42.97;25.15;;;8.80;99.90;;;;;;5013590;28;20030;-79
2021/06/08 02:41:07;;;;;;;43.80;26.58;;;8.80;99.90;;;;;;5014768;28;20030;-79
2021/06/08 02:43:34;;;;;;;51.58;26.95;;;8.80;99.90;;;;;;5013191;28;20505;-79
2021/06/08 02:46:01;;;;;;;38.10;24.90;;;8.80;99.90;;;;;;5012961;28;20104;-79
2021/06/08 02:48:28;;;;;;;48.05;26.77;;;8.80;99.90;;;;;;5014046;28;20025;-80
2021/06/08 02:50:55;;;;;;;44.28;25.80;;;8.80;99.90;;;;;;5012377;28;20160;-78
2021/06/08 02:53:22;;;;;;;44.38;26.35;;;8.80;99.90;;;;;;5014342;28;20022;-78
2021/06/08 02:55:52;;;;;;;57.15;29.02;;;8.80;99.90;;;;;;5014291;28;20525;-78
2021/06/08 02:58:20;;;;;;;45.75;25.85;;;8.80;99.90;;;;;;5013190;28;20049;-78
2021/06/08 03:00:46;;;;;;;44.97;26.67;;;8.90;99.90;;;;;;5012916;28;20037;-79
2021/06/08 03:03:18;;;;;;;52.60;29.85;;;8.80;99.90;;;;;;5014084;28;20510;-79
2021/06/08 03:06:13;;;;;;;56.03;28.63;;;8.80;99.90;;;;;;5014092;28;20518;-79
2021/06/08 03:08:49;;;;;;;47.00;26.88;;;8.80;99.90;;;;;;5012993;28;20022;-78
2021/06/08 03:11:20;;;;;;;40.72;24.55;;;8.80;99.90;;;;;;5014007;28;20041;-79
2021/06/08 03:13:47;;;;;;;43.05;24.38;;;8.80;99.90;;;;;;5013968;28;20088;-79
2021/06/08 03:16:17;;;;;;;40.17;24.23;;;8.70;99.90;;;;;;5014250;28;20114;-78
2021/06/08 03:18:46;;;;;;;40.75;25.13;;;8.70;99.90;;;;;;5014177;28;20121;-78
2021/06/08 03:21:23;;;;;;;44.00;24.52;;;8.60;99.90;;;;;;5013960;28;20036;-78
2021/06/08 03:23:54;;;;;;;38.70;23.42;;;8.60;99.90;;;;;;5029149;28;20026;-79
2021/06/08 03:26:21;;;;;;;43.40;23.88;;;8.50;99.90;;;;;;5013891;28;20056;-78
2021/06/08 03:28:52;;;;;;;43.10;24.60;;;8.50;99.90;;;;;;5012738;28;20032;-79
2021/06/08 03:31:20;;;;;;;40.92;23.88;;;8.60;99.90;;;;;;5012319;28;20037;-79
2021/06/08 03:33:46;;;;;;;46.55;25.17;;;8.60;99.90;;;;;;5013068;28;20109;-79
2021/06/08 03:36:13;;;;;;;47.83;26.40;;;8.50;99.90;;;;;;5012460;28;20038;-78
2021/06/08 03:38:40;;;;;;;56.00;27.48;;;8.60;99.90;;;;;;5013512;28;20084;-79
2021/06/08 03:41:06;;;;;;;58.05;31.80;;;8.60;99.90;;;;;;5013534;28;20025;-79
2021/06/08 03:43:32;;;;;;;50.53;30.10;;;8.70;99.90;;;;;;5012347;28;20064;-79
2021/06/08 03:45:57;;;;;;;62.00;31.30;;;8.80;99.90;;;;;;5013370;28;20076;-79
2021/06/08 03:48:24;;;;;;;59.95;31.65;;;8.90;99.90;;;;;;5012876;28;20026;-79
2021/06/08 03:50:50;;;;;;;52.88;29.05;;;9.00;99.90;;;;;;5012344;28;20072;-79
2021/06/08 03:53:17;;;;;;;62.20;32.58;;;9.10;99.90;;;;;;5013403;28;20075;-79
2021/06/08 03:55:45;;;;;;;62.42;33.33;;;9.20;99.90;;;;;;5013147;28;20498;-78
2021/06/08 03:58:16;;;;;;;65.88;29.85;;;9.30;99.90;;;;;;5012576;28;20390;-79
2021/06/08 04:00:42;;;;;;;68.90;33.50;;;9.30;99.90;;;;;;5012989;28;20022;-79
2021/06/08 04:03:11;;;;;;;66.60;32.92;;;9.40;99.90;;;;;;5013091;28;20046;-79
2021/06/08 04:05:37;;;;;;;73.25;34.92;;;9.50;99.90;;;;;;5013072;28;20026;-78
2021/06/08 04:08:05;;;;;;;71.78;34.95;;;9.50;99.90;;;;;;5012513;28;20371;-78
2021/06/08 04:10:31;;;;;;;65.20;32.90;;;9.50;99.90;;;;;;5013159;28;20490;-78
2021/06/08 04:13:02;;;;;;;62.53;34.50;;;9.50;99.90;;;;;;5013133;28;20045;-78
2021/06/08 04:15:29;;;;;;;66.35;33.17;;;9.50;99.90;;;;;;5012943;28;20071;-78
2021/06/08 04:17:56;;;;;;;56.20;30.52;;;9.60;99.90;;;;;;5012666;28;20099;-78
2021/06/08 04:20:24;;;;;;;71.53;34.70;;;9.70;99.90;;;;;;5012943;28;20026;-78
2021/06/08 04:22:55;;;;;;;69.90;33.85;;;9.70;99.90;;;;;;5012877;28;20371;-79
2021/06/08 04:25:21;;;;;;;60.95;32.38;;;9.80;99.90;;;;;;5012836;28;20467;-79
2021/06/08 04:27:46;;;;;;;64.00;34.22;;;9.90;99.90;;;;;;5011363;28;20117;-79
2021/06/08 04:30:14;;;;;;;57.25;32.88;;;10.00;99.90;;;;;;5011641;28;20034;-78
2021/06/08 04:32:39;;;;;;;55.83;31.60;;;10.10;99.90;;;;;;5011226;28;20040;-79
2021/06/08 04:35:07;;;;;;;62.00;32.10;;;10.10;99.90;;;;;;5011222;28;20033;-79
2021/06/08 04:37:33;;;;;;;60.13;31.58;;;10.20;99.90;;;;;;5010980;28;20140;-78
2021/06/08 04:39:58;;;;;;;57.47;30.75;;;10.30;99.90;;;;;;5012668;28;20494;-79
2021/06/08 04:42:24;;;;;;;64.05;31.67;;;10.40;99.90;;;;;;5011264;28;20026;-78
2021/06/08 04:44:51;;;;;;;51.75;30.08;;;10.50;99.90;;;;;;5011080;28;20022;-79
2021/06/08 04:47:18;;;;;;;54.05;30.63;;;10.50;99.90;;;;;;5012149;28;20026;-79
2021/06/08 04:49:44;;;;;;;52.53;29.48;;;10.60;99.90;;;;;;5012423;28;20061;-78
2021/06/08 04:52:10;;;;;;;53.17;29.00;;;10.70;99.90;;;;;;5012510;28;20030;-78
2021/06/08 04:54:37;;;;;;;53.30;29.85;;;10.80;99.90;;;;;;5012202;28;20026;-79
2021/06/08 04:57:04;;;;;;;52.17;28.02;;;10.80;99.90;;;;;;5011016;28;20030;-78
2021/06/08 04:59:55;;;;;;;50.22;28.90;;;10.80;99.90;;;;;;5011990;28;20026;-79
2021/06/08 05:02:44;;;;;;;51.53;28.80;;;10.90;99.90;;;;;;5011609;28;20033;-79
2021/06/08 05:05:16;;;;;;;45.92;27.42;;;11.00;99.90;;;;;;5012064;28;20127;-79
2021/06/08 05:07:49;;;;;;;48.08;28.50;;;11.10;99.90;;;;;;5011962;28;20088;-78
2021/06/08 05:10:16;;;;;;;56.05;27.42;;;11.10;99.90;;;;;;5027340;28;20022;-79
2021/06/08 05:12:44;;;;;;;41.50;25.23;;;11.20;99.90;;;;;;5011479;28;20533;-78
2021/06/08 05:15:16;;;;;;;39.92;26.10;;;11.20;99.90;;;;;;5012050;28;20030;-79
2021/06/08 05:17:43;;;;;;;37.80;24.08;;;11.20;99.90;;;;;;5011897;28;20486;-79
2021/06/08 05:20:10;;;;;;;39.20;25.33;;;11.40;99.90;;;;;;5003463;28;20160;-79
2021/06/08 05:22:37;;;;;;;43.40;25.35;;;11.50;99.90;;;;;;5008033;28;20079;-79
2021/06/08 05:25:03;;;;;;;36.70;22.75;;;11.70;99.90;;;;;;5006194;28;20400;-79
2021/06/08 05:27:29;;;;;;;36.20;22.17;;;11.70;99.90;;;;;;5005249;28;20025;-78
2021/06/08 05:29:59;;;;;;;31.40;22.35;;;11.60;99.90;;;;;;5007679;28;20041;-79
2021/06/08 05:32:25;;;;;;;30.75;21.45;;;11.70;99.90;;;;;;4999409;28;20026;-78
2021/06/08 05:34:51;;;;;;;34.72;21.45;;;11.80;99.90;;;;;;5005991;28;20026;-79
2021/06/08 05:37:18;;;;;;;25.42;19.15;;;11.90;99.90;;;;;;5006467;28;20038;-79
2021/06/08 05:39:45;;;;;;;30.77;21.75;;;12.00;99.90;;;;;;5004338;28;20505;-79
2021/06/08 05:42:17;;;;;;;26.08;19.95;;;12.20;99.90;;;;;;5008082;28;20033;-79
2021/06/08 05:44:42;;;;;;;31.30;20.38;;;12.30;99.90;;;;;;5006291;28;20033;-79
2021/06/08 05:47:08;;;;;;;22.75;18.83;;;12.30;99.90;;;;;;5007106;28;20033;-79
2021/06/08 05:49:37;;;;;;;25.77;19.35;;;12.40;99.90;;;;;;5010960;28;20048;-79
2021/06/08 05:52:04;;;;;;;30.10;21.23;;;12.50;99.90;;;;;;5012050;28;20121;-79
2021/06/08 05:54:31;;;;;;;29.02;19.05;;;12.70;99.90;;;;;;5005769;28;20033;-79
2021/06/08 05:56:58;;;;;;;31.98;19.00;;;12.80;99.90;;;;;;5003447;28;20026;-79
2021/06/08 05:59:24;;;;;;;25.33;16.60;;;12.80;99.90;;;;;;5005861;28;20494;-79
2021/06/08 06:01:50;;;;;;;20.38;15.95;;;12.90;99.90;;;;;;5004035;28;20061;-78
2021/06/08 06:04:17;;;;;;;18.98;14.70;;;12.80;99.90;;;;;;5005605;28;20457;-79
2021/06/08 06:06:46;;;;;;;16.25;13.60;;;12.80;99.90;;;;;;5005627;28;20042;-79
2021/06/08 06:09:13;;;;;;;16.52;11.90;;;12.90;99.90;;;;;;5005965;28;20096;-79
2021/06/08 06:11:40;;;;;;;15.35;12.32;;;12.90;99.90;;;;;;5006205;28;20076;-78
2021/06/08 06:14:07;;;;;;;18.52;12.20;;;13.00;99.90;;;;;;5005548;28;20025;-79
2021/06/08 06:16:44;;;;;;;12.40;11.05;;;12.90;99.90;;;;;;5005348;28;20034;-79
2021/06/08 06:19:11;;;;;;;14.40;11.35;;;13.00;99.90;;;;;;5007248;28;20109;-79
2021/06/08 06:21:37;;;;;;;13.57;11.77;;;13.00;99.90;;;;;;5005903;28;20534;-79
2021/06/08 06:24:04;;;;;;;14.15;10.55;;;13.00;99.90;;;;;;5014549;28;20037;-79
2021/06/08 06:26:32;;;;;;;15.27;11.85;;;13.20;99.90;;;;;;5009157;28;20050;-78
2021/06/08 06:28:59;;;;;;;14.30;12.70;;;13.30;99.90;;;;;;5009068;28;20022;-80
2021/06/08 06:31:26;;;;;;;14.25;11.88;;;13.40;99.90;;;;;;5010371;28;20537;-78
2021/06/08 06:33:58;;;;;;;15.15;13.13;;;13.50;99.90;;;;;;5008685;28;20037;-80
2021/06/08 06:36:29;;;;;;;15.77;11.45;;;13.60;99.90;;;;;;5009006;28;20057;-79
2021/06/08 06:39:01;;;;;;;11.70;10.50;;;13.60;99.90;;;;;;5010570;28;20022;-79
2021/06/08 06:41:28;;;;;;;15.13;11.55;;;13.70;99.90;;;;;;5011034;28;20045;-79
2021/06/08 06:43:55;;;;;;;14.15;11.68;;;13.90;99.90;;;;;;5009653;28;20022;-79
2021/06/08 06:46:22;;;;;;;12.38;10.88;;;13.80;99.90;;;;;;5009177;28;20421;-80
2021/06/08 06:48:52;;;;;;;12.52;10.80;;;13.90;99.90;;;;;;5010746;28;20049;-80
2021/06/08 06:51:18;;;;;;;17.00;12.30;;;14.00;99.90;;;;;;5011160;28;20546;-79
2021/06/08 06:53:48;;;;;;;15.35;11.90;;;14.20;99.90;;;;;;5012386;28;20493;-79
2021/06/08 06:56:14;;;;;;;13.48;11.68;;;14.40;99.90;;;;;;5014436;28;20025;-80
2021/06/08 06:58:42;;;;;;;13.45;10.55;;;14.40;99.90;;;;;;5012814;28;20469;-79
2021/06/08 07:01:08;;;;;;;13.07;10.35;;;14.50;99.90;;;;;;5029511;28;20402;-79
2021/06/08 07:03:34;;;;;;;20.70;11.38;;;15.00;99.90;;;;;;5029343;28;20505;-79
2021/06/08 07:06:01;;;;;;;14.18;11.75;;;15.10;99.90;;;;;;5012818;28;20026;-79
2021/06/08 07:08:29;;;;;;;14.20;11.48;;;15.10;99.90;;;;;;5014015;28;20037;-80
2021/06/08 07:10:56;;;;;;;15.25;10.75;;;15.30;99.90;;;;;;5014392;28;20026;-80
2021/06/08 07:13:22;;;;;;;13.93;10.70;;;15.40;99.90;;;;;;5014369;28;20471;-80
2021/06/08 07:15:54;;;;;;;12.52;9.95;;;15.60;99.90;;;;;;5013890;28;20121;-81
2021/06/08 07:18:19;;;;;;;14.00;10.10;;;15.90;99.90;;;;;;5013751;28;20517;-80
2021/06/08 07:20:46;;;;;;;18.88;10.52;;;16.20;99.90;;;;;;5013817;28;20030;-80
2021/06/08 07:23:16;;;;;;;13.88;9.95;;;16.40;99.90;;;;;;5002077;28;20422;-80
2021/06/08 07:25:42;;;;;;;12.95;10.90;;;16.50;99.90;;;;;;5024051;28;20482;-80
2021/06/08 07:28:10;;;;;;;16.70;10.52;;;16.60;99.90;;;;;;5011259;28;20029;-80
2021/06/08 07:30:37;;;;;;;12.68;10.75;;;16.80;99.90;;;;;;5009699;28;20498;-80
2021/06/08 07:33:21;;;;;;;16.00;11.65;;;16.90;99.90;;;;;;5009311;28;20042;-80
2021/06/08 07:35:47;;;;;;;18.30;11.70;;;17.00;99.90;;;;;;5008281;28;20026;-79
2021/06/08 07:38:23;;;;;;;15.07;9.70;;;17.20;99.90;;;;;;5007802;28;20510;-81
2021/06/08 07:41:02;;;;;;;11.73;8.85;;;17.20;99.90;;;;;;5009716;28;20426;-80
2021/06/08 07:43:44;;;;;;;10.18;9.00;;;17.40;99.90;;;;;;5009466;28;20022;-80
2021/06/08 07:46:15;;;;;;;11.93;9.27;;;17.80;99.90;;;;;;5008108;28;20026;-80
2021/06/08 07:48:43;;;;;;;11.48;8.45;;;18.00;99.90;;;;;;5003279;28;20389;-80
2021/06/08 07:51:10;;;;;;;9.95;8.13;;;18.20;99.90;;;;;;5009242;28;20080;-80
2021/06/08 07:53:36;;;;;;;9.45;8.40;;;18.60;99.90;;;;;;5009212;28;20018;-79
2021/06/08 07:56:04;;;;;;;10.63;8.18;;;18.70;99.90;;;;;;5023626;28;20037;-80
2021/06/08 07:58:30;;;;;;;8.68;7.47;;;19.00;99.90;;;;;;5005287;28;20026;-81
2021/06/08 08:00:58;;;;;;;11.27;7.53;;;18.90;99.90;;;;;;5008681;28;20026;-81
2021/06/08 08:03:28;;;;;;;9.57;7.15;;;19.20;99.90;;;;;;5008486;28;20032;-82
2021/06/08 08:06:02;;;;;;;8.45;7.15;;;19.20;99.90;;;;;;5009476;28;20025;-80
2021/06/08 08:08:30;;;;;;;8.85;7.15;;;19.40;99.90;;;;;;5008878;28;20026;-80
2021/06/08 08:10:56;;;;;;;12.30;8.07;;;19.30;99.90;;;;;;5007628;28;20478;-81
2021/06/08 08:13:24;;;;;;;9.88;6.15;;;19.80;99.90;;;;;;5009187;28;20028;-82
2021/06/08 08:15:52;;;;;;;11.40;6.65;;;19.80;99.90;;;;;;5007661;28;20113;-83
2021/06/08 08:18:19;;;;;;;11.20;7.78;;;19.80;99.90;;;;;;5007047;28;20497;-79
2021/06/08 08:20:51;;;;;;;8.82;6.50;;;19.80;99.90;;;;;;5008811;28;20475;-80
2021/06/08 08:23:18;;;;;;;10.53;5.80;;;20.00;99.90;;;;;;5007406;28;20117;-81
2021/06/08 08:25:44;;;;;;;8.52;5.47;;;20.10;99.90;;;;;;5007002;28;20257;-80
2021/06/08 08:28:11;;;;;;;7.85;6.18;;;20.40;99.90;;;;;;5007970;28;20033;-81
2021/06/08 08:30:37;;;;;;;8.40;6.45;;;20.60;99.90;;;;;;5008283;28;20025;-82
2021/06/08 08:33:04;;;;;;;8.52;6.28;;;20.80;99.90;;;;;;5023487;28;20191;-81
2021/06/08 08:35:31;;;;;;;6.18;5.43;;;20.90;99.90;;;;;;5008583;28;20048;-82
2021/06/08 08:37:57;;;;;;;8.07;5.72;;;20.70;99.90;;;;;;5008313;28;20030;-82
2021/06/08 08:40:23;;;;;;;7.97;6.20;;;20.80;99.90;;;;;;5007567;28;20045;-83
2021/06/08 08:42:51;;;;;;;7.03;5.30;;;21.00;99.90;;;;;;5008711;28;20067;-84
2021/06/08 08:45:16;;;;;;;7.40;5.20;;;21.00;99.90;;;;;;5007080;28;20486;-83
2021/06/08 08:47:44;;;;;;;11.05;5.97;;;21.00;99.90;;;;;;5005664;28;20034;-81
2021/06/08 08:50:14;;;;;;;9.05;5.55;;;21.30;99.90;;;;;;5007698;28;20383;-82
2021/06/08 08:52:44;;;;;;;6.72;3.97;;;21.30;99.90;;;;;;5007558;28;20025;-82
2021/06/08 08:55:11;;;;;;;8.48;5.13;;;21.50;99.90;;;;;;5008246;28;20029;-81
2021/06/08 08:57:38;;;;;;;5.63;4.25;;;21.80;99.90;;;;;;5002614;28;20029;-79
2021/06/08 09:00:06;;;;;;;5.82;3.58;;;22.00;99.90;;;;;;5006976;28;20036;-80
2021/06/08 09:02:32;;;;;;;5.32;4.20;;;22.10;99.90;;;;;;5007957;28;20172;-80
2021/06/08 09:04:59;;;;;;;4.53;3.75;;;22.10;99.90;;;;;;5008329;28;20030;-79
2021/06/08 09:07:26;;;;;;;4.63;3.38;;;22.30;99.90;;;;;;5007850;28;20026;-80
2021/06/08 09:09:52;;;;;;;5.85;3.47;;;22.20;99.90;;;;;;5024509;28;20538;-80
2021/06/08 09:12:18;;;;;;;5.00;2.92;;;22.10;99.90;;;;;;5009209;28;20118;-80
2021/06/08 09:14:43;;;;;;;4.93;3.35;;;22.20;99.90;;;;;;5008020;28;20395;-80
2021/06/08 09:17:10;;;;;;;7.90;3.63;;;22.50;99.90;;;;;;5006940;28;20018;-79
2021/06/08 09:19:35;;;;;;;7.05;4.05;;;22.60;99.90;;;;;;5008960;28;20030;-79
2021/06/08 09:22:02;;;;;;;8.50;4.05;;;22.60;99.90;;;;;;5009091;28;20112;-79
2021/06/08 09:24:33;;;;;;;6.85;3.70;;;22.50;99.90;;;;;;5008830;28;20022;-79
2021/06/08 09:27:02;;;;;;;6.32;3.38;;;22.40;99.90;;;;;;5007076;28;20050;-79
2021/06/08 09:29:42;;;;;;;5.45;2.97;;;22.80;99.90;;;;;;5008730;28;20470;-79
2021/06/08 09:32:15;;;;;;;9.07;3.15;;;22.90;99.90;;;;;;5007853;28;20398;-79
2021/06/08 09:35:02;;;;;;;5.43;3.03;;;23.40;99.90;;;;;;5005714;28;20490;-80
2021/06/08 09:37:38;;;;;;;8.85;4.22;;;23.50;99.90;;;;;;5001384;28;20144;-80
2021/06/08 09:40:25;;;;;;;5.93;3.88;;;23.60;99.90;;;;;;5008128;28;20195;-80
2021/06/08 09:43:08;;;;;;;15.63;4.53;;;23.40;99.90;;;;;;5007911;28;20033;-80
2021/06/08 09:45:49;;;;;;;6.25;3.58;;;23.40;99.90;;;;;;5007897;28;20075;-80
2021/06/08 09:48:16;;;;;;;7.40;3.35;;;23.50;99.90;;;;;;5007713;28;20025;-80
2021/06/08 09:50:42;;;;;;;8.60;3.60;;;23.40;99.90;;;;;;5007010;28;20083;-82
2021/06/08 09:53:20;;;;;;;6.82;3.47;;;23.50;99.90;;;;;;5006663;28;20517;-82
2021/06/08 09:55:59;;;;;;;7.82;3.30;;;23.70;99.90;;;;;;5005892;28;20036;-81
2021/06/08 09:58:27;;;;;;;7.85;2.75;;;23.90;99.90;;;;;;5002520;28;20499;-82
2021/06/08 10:01:17;;;;;;;4.68;2.75;;;24.10;99.90;;;;;;5011238;28;20076;-82
2021/06/08 10:03:45;;;;;;;5.97;2.95;;;24.20;99.90;;;;;;5011197;28;20030;-81
2021/06/08 10:06:17;;;;;;;4.57;2.92;;;24.30;99.90;;;;;;5009797;28;20022;-82
2021/06/08 10:09:12;;;;;;;13.13;4.20;;;24.20;99.90;;;;;;5010728;28;20025;-82
2021/06/08 10:11:40;;;;;;;3.67;2.90;;;24.30;99.90;;;;;;5010625;28;20121;-82
2021/06/08 10:14:20;;;;;;;6.95;3.25;;;24.50;99.90;;;;;;5011378;28;20094;-82
2021/06/08 10:16:58;;;;;;;5.03;2.65;;;24.80;99.90;;;;;;5004038;28;20149;-82
2021/06/08 10:19:27;;;;;;;7.13;3.05;;;24.70;99.90;;;;;;5010243;28;20124;-82
2021/06/08 10:21:54;;;;;;;5.38;2.78;;;24.40;99.90;;;;;;5011196;28;20798;-82
2021/06/08 10:24:25;;;;;;;11.25;4.00;;;24.80;99.90;;;;;;5011565;28;20034;-84
2021/06/08 10:26:53;;;;;;;6.28;3.45;;;24.80;99.90;;;;;;5009397;28;20033;-83
2021/06/08 10:29:21;;;;;;;8.70;2.95;;;24.90;99.90;;;;;;5010195;28;20036;-83
2021/06/08 10:31:47;;;;;;;4.50;2.95;;;25.00;99.90;;;;;;5010722;28;20026;-82
2021/06/08 10:34:13;;;;;;;4.68;2.35;;;24.90;99.90;;;;;;5025602;28;20213;-83
2021/06/08 10:36:43;;;;;;;4.60;2.72;;;25.20;99.90;;;;;;5010301;28;20038;-84
2021/06/08 10:39:11;;;;;;;5.38;3.88;;;25.40;99.90;;;;;;5004884;28;20038;-82
2021/06/08 10:41:42;;;;;;;3.83;3.40;;;25.30;99.90;;;;;;5010573;28;20076;-82
2021/06/08 10:44:20;;;;;;;7.97;3.15;;;25.30;99.90;;;;;;5010335;28;20041;-82
2021/06/08 10:46:55;;;;;;;5.22;2.80;;;25.50;99.90;;;;;;5010461;28;20054;-82
2021/06/08 10:49:41;;;;;;;8.27;2.55;;;25.80;99.90;;;;;;5010247;28;20036;-82
2021/06/08 10:52:12;;;;;;;2.00;1.80;;;25.60;99.90;;;;;;5008991;28;20550;-83
2021/06/08 10:54:48;;;;;;;1.90;1.50;;;25.40;99.90;;;;;;5010645;28;20036;-82
2021/06/08 10:57:14;;;;;;;1.73;1.20;;;25.30;99.90;;;;;;5004895;28;20037;-81
2021/06/08 10:59:51;;;;;;;3.00;1.25;;;25.20;96.90;;;;;;5025705;28;20032;-84
2021/06/08 11:02:43;;;;;;;1.98;1.20;;;25.20;99.90;;;;;;5009948;28;20030;-81
2021/06/08 11:05:09;;;;;;;1.95;1.20;;;25.20;96.70;;;;;;5009056;28;20441;-83
2021/06/08 11:07:44;;;;;;;3.85;1.30;;;25.30;95.90;;;;;;5009074;28;20552;-83
2021/06/08 11:10:25;;;;;;;1.48;1.17;;;25.40;91.50;;;;;;5013126;28;20019;-83
2021/06/08 11:13:13;;;;;;;0.93;0.63;;;25.50;94.40;;;;;;5009962;28;20084;-81
2021/06/08 11:15:41;;;;;;;3.15;1.20;;;25.70;85.50;;;;;;5009323;28;20072;-80
2021/06/08 11:18:22;;;;;;;3.25;1.20;;;25.70;93.80;;;;;;5009035;28;20029;-81
2021/06/08 11:21:10;;;;;;;1.27;0.70;;;25.70;92.90;;;;;;5010029;28;20080;-82
2021/06/08 11:23:44;;;;;;;1.15;0.68;;;25.60;80.20;;;;;;5009938;28;20034;-80
2021/06/08 11:26:14;;;;;;;3.70;1.30;;;25.70;95.50;;;;;;5010217;28;20026;-81
2021/06/08 11:28:48;;;;;;;6.80;2.00;;;25.70;88.10;;;;;;5009855;28;20116;-82
2021/06/08 11:31:16;;;;;;;2.42;1.27;;;25.60;94.20;;;;;;5008747;28;20022;-81
2021/06/08 11:33:44;;;;;;;0.88;0.70;;;25.80;98.20;;;;;;5008576;28;20662;-81
2021/06/08 11:36:19;;;;;;;1.80;0.50;;;25.80;82.80;;;;;;5010401;28;20018;-82
2021/06/08 11:38:46;;;;;;;1.52;1.02;;;25.60;71.50;;;;;;5008370;28;20034;-82
2021/06/08 11:41:12;;;;;;;6.05;1.00;;;25.70;90.50;;;;;;5009180;28;20028;-82
2021/06/08 11:43:37;;;;;;;1.95;1.08;;;25.90;86.80;;;;;;5008926;28;20022;-82
2021/06/08 11:46:06;;;;;;;1.58;0.82;;;25.70;80.20;;;;;;5009655;28;20080;-80
2021/06/08 11:48:35;;;;;;;4.75;1.08;;;25.80;81.70;;;;;;5009493;28;20034;-82
2021/06/08 11:51:22;;;;;;;4.10;0.90;;;25.70;83.10;;;;;;5008333;28;20030;-82
2021/06/08 11:53:59;;;;;;;2.47;1.10;;;25.70;88.70;;;;;;5004211;28;20570;-79
2021/06/08 11:56:51;;;;;;;2.35;1.48;;;25.80;84.70;;;;;;5006369;28;20034;-81
2021/06/08 11:59:26;;;;;;;6.32;1.52;;;26.00;90.00;;;;;;5006613;28;20034;-81
2021/06/08 12:02:00;;;;;;;2.67;1.20;;;26.30;99.20;;;;;;5008089;28;20103;-81
2021/06/08 12:04:30;;;;;;;1.95;1.10;;;27.10;94.40;;;;;;5009358;28;20026;-81
2021/06/08 12:06:57;;;;;;;4.53;1.10;;;27.50;83.40;;;;;;5009128;28;20486;-81
2021/06/08 12:09:24;;;;;;;5.18;0.80;;;27.20;83.80;;;;;;5008919;28;20056;-80
2021/06/08 12:11:51;;;;;;;1.42;1.20;;;26.90;76.80;;;;;;5008847;28;20026;-80
2021/06/08 12:14:18;;;;;;;3.20;1.42;;;26.60;85.20;;;;;;5007804;28;20049;-81
2021/06/08 12:16:50;;;;;;;2.47;1.70;;;26.90;86.30;;;;;;5008121;28;20022;-81
2021/06/08 12:19:17;;;;;;;4.60;2.07;;;26.90;90.60;;;;;;5007667;28;20062;-81
2021/06/08 12:21:44;;;;;;;2.67;1.85;;;27.60;95.20;;;;;;5008415;28;20289;-81
2021/06/08 12:24:16;;;;;;;3.38;2.03;;;27.80;93.40;;;;;;5008862;28;20474;-81
2021/06/08 12:27:14;;;;;;;5.40;2.10;;;28.00;96.20;;;;;;5008968;28;20079;-81
2021/06/08 12:29:51;;;;;;;5.88;1.15;;;27.60;91.60;;;;;;4986207;28;20096;-81
2021/06/08 12:32:16;;;;;;;3.28;1.35;;;27.30;88.40;;;;;;5007331;28;20533;-82
2021/06/08 12:34:48;;;;;;;3.28;1.90;;;27.20;96.90;;;;;;5007740;28;20037;-81
2021/06/08 12:37:24;;;;;;;9.00;1.20;;;27.50;88.70;;;;;;5008960;28;20048;-81
2021/06/08 12:39:52;;;;;;;3.70;1.70;;;27.80;91.10;;;;;;5007454;28;20441;-82
2021/06/08 12:42:19;;;;;;;3.83;1.80;;;28.00;92.20;;;;;;5007403;28;20022;-82
2021/06/08 12:44:47;;;;;;;2.70;1.85;;;27.90;92.30;;;;;;5008296;28;20025;-82
2021/06/08 12:47:13;;;;;;;4.28;1.60;;;27.50;91.60;;;;;;5014608;28;20110;-81
2021/06/08 12:49:41;;;;;;;4.32;1.77;;;27.40;97.20;;;;;;5007553;28;20128;-81
2021/06/08 12:52:11;;;;;;;9.98;2.17;;;27.30;92.70;;;;;;5008386;28;20096;-80